Trade Lake, Wisconsin
Current Conditions -  °F | °C
As of 6:55 AM on Tuesday 21 Oct 2014 (Local Time) from KRZN Reporting Station
Overcast Overcast  
Wind Chill: 42°   Ceiling: 2400
Heat Index: 42°   Visibility: 10mi
Dew Point: 39°   Wind: 0mph
Humidity: 88%   Direction: NA
Pressure: 30.19"   Gusts: NA
Location:  45.6678°N, 92.363°W
Report Text: KRZN 211155Z AUTO 00000KT 10SM OVC024 06/04 A3019 RMK AO2 T00580039 10058 20008
Loading
Personal Weather Stations






























Interactive Weather Map New forecast layout! Learn more

10-Day Weather Forecast

Advertisements
Track Severe Weather on mobile